Time;durP1;ratioP1;P1;durP2;ratioP2;P2;SDS_P1;SDS_P2;PMS_P1;PMS_P2;Temp;Humidity;BMP_temperature;BMP_pressure;BME280_temperature;BME280_humidity;BME280_pressure;Samples;Min_cycle;Max_cycle;Signal;HPM_P1;HPM_P2
2021/05/13 00:00:43;;;;;;;3.65;2.45;;;;;;;;;;5036695;28;20178;-69
2021/05/13 00:03:09;;;;;;;3.15;2.85;;;;;;;;;;5033811;28;20212;-69
2021/05/13 00:05:34;;;;;;;4.32;2.83;;;;;;;;;;5039481;28;20213;-69
2021/05/13 00:07:59;;;;;;;5.00;2.88;;;;;;;;;;5035229;28;20190;-69
2021/05/13 00:10:26;;;;;;;4.00;2.78;;;;;;;;;;5033427;28;20204;-69
2021/05/13 00:12:56;;;;;;;4.43;2.78;;;;;;;;;;5032821;28;20185;-69
2021/05/13 00:15:25;;;;;;;5.55;3.28;;;;;;;;;;5033442;28;20637;-69
2021/05/13 00:17:50;;;;;;;3.42;2.97;;;;;;;;;;5033140;28;20210;-69
2021/05/13 00:20:29;;;;;;;3.58;2.70;;;;;;;;;;5033644;28;20271;-69
2021/05/13 00:22:54;;;;;;;4.05;2.97;;;;;;;;;;5036017;28;20197;-69
2021/05/13 00:25:20;;;;;;;4.90;2.90;;;;;;;;;;5035795;28;20190;-69
2021/05/13 00:27:47;;;;;;;4.60;3.05;;;;;;;;;;5038534;28;20193;-69
2021/05/13 00:30:13;;;;;;;7.82;3.30;;;;;;;;;;5036840;28;20735;-69
2021/05/13 00:32:39;;;;;;;4.95;3.13;;;;;;;;;;5040847;28;20636;-69
2021/05/13 00:35:06;;;;;;;6.88;3.05;;;;;;;;;;5036223;28;20189;-69
2021/05/13 00:37:32;;;;;;;5.70;3.00;;;;;;;;;;5037652;28;20233;-69
2021/05/13 00:39:57;;;;;;;4.10;2.90;;;;;;;;;;5033192;28;20267;-69
2021/05/13 00:42:22;;;;;;;5.53;3.50;;;;;;;;;;5035649;28;20227;-69
2021/05/13 00:44:48;;;;;;;3.67;2.92;;;;;;;;;;5023139;28;20283;-69
2021/05/13 00:47:13;;;;;;;5.07;3.20;;;;;;;;;;5033097;28;20921;-69
2021/05/13 00:49:40;;;;;;;6.72;3.70;;;;;;;;;;5034209;28;20246;-69
2021/05/13 00:52:09;;;;;;;7.22;3.72;;;;;;;;;;5030588;28;20279;-69
2021/05/13 00:54:37;;;;;;;9.80;4.15;;;;;;;;;;5040610;28;20195;-69
2021/05/13 00:57:05;;;;;;;6.25;3.95;;;;;;;;;;5027391;28;20185;-69
2021/05/13 00:59:30;;;;;;;10.82;4.38;;;;;;;;;;5038783;28;20181;-69
2021/05/13 01:01:55;;;;;;;7.22;4.45;;;;;;;;;;5031005;28;20193;-69
2021/05/13 01:04:21;;;;;;;11.55;4.85;;;;;;;;;;5032849;28;20210;-69
2021/05/13 01:06:48;;;;;;;11.23;5.30;;;;;;;;;;5030046;28;20788;-69
2021/05/13 01:09:20;;;;;;;11.85;5.85;;;;;;;;;;5035629;28;20648;-69
2021/05/13 01:11:49;;;;;;;10.18;5.85;;;;;;;;;;5027667;28;20194;-70
2021/05/13 01:19:32;;;;;;;11.27;6.72;;;;;;;;;;5035380;28;20673;-70
2021/05/13 01:21:57;;;;;;;11.85;6.00;;;;;;;;;;5031565;28;20201;-70
2021/05/13 01:24:23;;;;;;;10.20;6.97;;;;;;;;;;5040745;28;20203;-70
2021/05/13 01:26:49;;;;;;;12.95;6.90;;;;;;;;;;5027643;28;20185;-70
2021/05/13 01:29:18;;;;;;;10.20;7.32;;;;;;;;;;5035510;28;20214;-70
2021/05/13 01:31:43;;;;;;;12.68;7.40;;;;;;;;;;5035391;28;20522;-70
2021/05/13 01:34:09;;;;;;;11.05;7.22;;;;;;;;;;5029849;28;20188;-70
2021/05/13 01:36:35;;;;;;;11.57;7.50;;;;;;;;;;5037860;28;20300;-70
2021/05/13 01:39:03;;;;;;;12.18;6.78;;;;;;;;;;5026805;28;20606;-70
2021/05/13 01:41:28;;;;;;;7.65;6.32;;;;;;;;;;5037458;28;20190;-70
2021/05/13 01:43:54;;;;;;;7.88;6.90;;;;;;;;;;5033467;28;20290;-70
2021/05/13 01:46:19;;;;;;;9.35;7.38;;;;;;;;;;5030572;28;20212;-70
2021/05/13 01:48:45;;;;;;;13.77;7.32;;;;;;;;;;5029539;28;20212;-70
2021/05/13 01:51:11;;;;;;;8.38;6.78;;;;;;;;;;5036039;28;20181;-70
2021/05/13 01:53:42;;;;;;;11.88;7.32;;;;;;;;;;5028828;28;20201;-69
2021/05/13 01:56:08;;;;;;;13.30;7.20;;;;;;;;;;5035419;28;20200;-69
2021/05/13 01:58:34;;;;;;;15.60;7.80;;;;;;;;;;5031514;28;28521;-69
2021/05/13 02:00:59;;;;;;;8.02;7.13;;;;;;;;;;5042907;28;20668;-70
2021/05/13 02:03:26;;;;;;;10.25;7.88;;;;;;;;;;5036581;28;20249;-69
2021/05/13 02:05:52;;;;;;;12.65;8.20;;;;;;;;;;5029839;28;20193;-70
2021/05/13 02:08:17;;;;;;;11.27;8.32;;;;;;;;;;5035672;28;20677;-69
2021/05/13 02:10:42;;;;;;;11.95;8.02;;;;;;;;;;5029551;28;20189;-69
2021/05/13 02:13:08;;;;;;;12.05;8.70;;;;;;;;;;5032244;28;20267;-69
2021/05/13 02:15:33;;;;;;;11.02;8.23;;;;;;;;;;5028387;28;20192;-69
2021/05/13 02:17:59;;;;;;;11.52;8.18;;;;;;;;;;5033891;28;20186;-69
2021/05/13 02:20:25;;;;;;;11.30;9.18;;;;;;;;;;5028161;28;20586;-69
2021/05/13 02:22:51;;;;;;;15.95;9.18;;;;;;;;;;5035720;28;20172;-69
2021/05/13 02:25:17;;;;;;;14.43;9.40;;;;;;;;;;5031755;28;20189;-70
2021/05/13 02:27:42;;;;;;;15.30;9.45;;;;;;;;;;5032964;28;20199;-69
2021/05/13 02:30:11;;;;;;;14.15;9.65;;;;;;;;;;5028197;28;20663;-69
2021/05/13 02:32:37;;;;;;;14.68;9.85;;;;;;;;;;5038660;28;20185;-70
2021/05/13 02:35:04;;;;;;;12.80;9.30;;;;;;;;;;5036630;28;20500;-69
2021/05/13 02:37:30;;;;;;;10.68;9.52;;;;;;;;;;5031390;28;20227;-69
2021/05/13 02:39:55;;;;;;;12.93;10.13;;;;;;;;;;5038773;28;20190;-69
2021/05/13 02:42:20;;;;;;;13.13;9.93;;;;;;;;;;5028590;28;20295;-69
2021/05/13 02:44:46;;;;;;;13.60;9.75;;;;;;;;;;5036976;28;20247;-69
2021/05/13 02:47:11;;;;;;;16.02;10.32;;;;;;;;;;5029668;28;20665;-69
2021/05/13 02:49:37;;;;;;;11.48;10.27;;;;;;;;;;5042119;28;20220;-70
2021/05/13 02:52:03;;;;;;;13.35;10.48;;;;;;;;;;5031590;28;20194;-70
2021/05/13 02:54:28;;;;;;;13.85;9.93;;;;;;;;;;5040568;28;20189;-70
2021/05/13 02:56:54;;;;;;;13.60;11.02;;;;;;;;;;5028552;28;20178;-70
2021/05/13 02:59:19;;;;;;;12.75;10.48;;;;;;;;;;5040523;28;20197;-70
2021/05/13 03:01:44;;;;;;;12.60;10.77;;;;;;;;;;5030887;28;20855;-70
2021/05/13 03:04:10;;;;;;;15.70;10.48;;;;;;;;;;5038219;28;20666;-70
2021/05/13 03:06:38;;;;;;;13.32;10.23;;;;;;;;;;5039134;28;20708;-70
2021/05/13 03:09:04;;;;;;;14.45;10.70;;;;;;;;;;5035917;28;20198;-70
2021/05/13 03:11:30;;;;;;;12.02;10.60;;;;;;;;;;5035320;28;20248;-70
2021/05/13 03:13:57;;;;;;;14.23;11.00;;;;;;;;;;5037268;28;20716;-70
2021/05/13 03:16:23;;;;;;;17.40;11.13;;;;;;;;;;5040570;28;20633;-70
2021/05/13 03:18:53;;;;;;;12.73;10.32;;;;;;;;;;5031431;28;20193;-70
2021/05/13 03:23:56;;;;;;;15.90;11.30;;;;;;;;;;5032816;28;20198;-70
2021/05/13 03:26:41;;;;;;;14.73;11.45;;;;;;;;;;5036772;28;20192;-70
2021/05/13 03:29:06;;;;;;;18.90;11.77;;;;;;;;;;5036926;28;20224;-70
2021/05/13 03:31:32;;;;;;;15.65;11.75;;;;;;;;;;5038261;28;20570;-69
2021/05/13 03:33:57;;;;;;;12.88;10.98;;;;;;;;;;5036796;28;20192;-70
2021/05/13 03:36:23;;;;;;;13.27;11.50;;;;;;;;;;5039299;28;20189;-70
2021/05/13 03:38:48;;;;;;;13.43;10.65;;;;;;;;;;5029339;28;20192;-70
2021/05/13 03:41:13;;;;;;;13.07;10.83;;;;;;;;;;5038725;28;20699;-70
2021/05/13 03:43:39;;;;;;;13.53;10.77;;;;;;;;;;5038350;28;20259;-69
2021/05/13 03:46:04;;;;;;;13.57;10.73;;;;;;;;;;5040565;28;20186;-70
2021/05/13 03:48:29;;;;;;;13.05;11.13;;;;;;;;;;5035805;28;20208;-69
2021/05/13 03:50:55;;;;;;;16.63;11.60;;;;;;;;;;5028608;28;20256;-69
2021/05/13 03:53:20;;;;;;;13.75;10.45;;;;;;;;;;5043566;28;20177;-69
2021/05/13 03:55:50;;;;;;;15.15;12.23;;;;;;;;;;5029333;28;20197;-70
2021/05/13 03:58:15;;;;;;;15.20;12.05;;;;;;;;;;5039588;28;20186;-69
2021/05/13 04:00:50;;;;;;;16.88;13.35;;;;;;;;;;5029740;28;20213;-69
2021/05/13 04:03:15;;;;;;;13.57;11.32;;;;;;;;;;5042646;28;20232;-69
2021/05/13 04:05:41;;;;;;;16.67;12.57;;;;;;;;;;5031096;28;20220;-70
2021/05/13 04:08:07;;;;;;;14.57;12.53;;;;;;;;;;5041562;28;20495;-70
2021/05/13 04:10:33;;;;;;;16.47;12.23;;;;;;;;;;5030570;28;20197;-69
2021/05/13 04:13:02;;;;;;;14.47;12.97;;;;;;;;;;5041550;28;20835;-70
2021/05/13 04:15:27;;;;;;;15.57;12.47;;;;;;;;;;5028712;28;20177;-69
2021/05/13 04:17:52;;;;;;;15.20;12.33;;;;;;;;;;5034539;28;20178;-69
2021/05/13 04:20:18;;;;;;;17.10;12.43;;;;;;;;;;5038175;28;20190;-69
2021/05/13 04:22:43;;;;;;;17.37;12.10;;;;;;;;;;5029365;28;20193;-69
2021/05/13 04:25:09;;;;;;;13.90;12.00;;;;;;;;;;5036993;28;20193;-70
2021/05/13 04:27:34;;;;;;;13.13;11.37;;;;;;;;;;5030832;28;20244;-70
2021/05/13 04:30:00;;;;;;;13.10;10.77;;;;;;;;;;5036298;28;20201;-69
2021/05/13 04:32:25;;;;;;;13.93;12.03;;;;;;;;;;5030685;28;20608;-70
2021/05/13 04:34:50;;;;;;;16.43;11.80;;;;;;;;;;5039960;28;20197;-69
2021/05/13 04:37:16;;;;;;;14.30;12.02;;;;;;;;;;5029756;28;20194;-69
2021/05/13 04:39:41;;;;;;;16.65;12.85;;;;;;;;;;5043813;28;20197;-69
2021/05/13 04:42:07;;;;;;;14.63;12.00;;;;;;;;;;5024482;28;20189;-69
2021/05/13 04:44:34;;;;;;;15.70;12.70;;;;;;;;;;5036412;28;20221;-69
2021/05/13 04:47:00;;;;;;;15.10;11.90;;;;;;;;;;5028154;28;20655;-69
2021/05/13 04:49:26;;;;;;;14.40;10.70;;;;;;;;;;5040957;28;20205;-69
2021/05/13 04:51:52;;;;;;;15.45;11.20;;;;;;;;;;5039777;28;20180;-70
2021/05/13 04:54:18;;;;;;;14.77;11.20;;;;;;;;;;5027484;28;20288;-70
2021/05/13 04:56:45;;;;;;;14.57;11.80;;;;;;;;;;4342634;28;10000780;-69
2021/05/13 04:59:10;;;;;;;14.35;12.15;;;;;;;;;;5028065;28;20681;-69
2021/05/13 05:01:36;;;;;;;15.63;11.82;;;;;;;;;;5031223;28;20202;-70
2021/05/13 05:04:01;;;;;;;15.75;12.23;;;;;;;;;;5023303;28;20193;-69
2021/05/13 05:06:27;;;;;;;19.83;12.88;;;;;;;;;;5029164;28;20185;-69
2021/05/13 05:08:52;;;;;;;17.63;14.43;;;;;;;;;;5020200;28;20202;-70
2021/05/13 05:11:20;;;;;;;16.20;12.75;;;;;;;;;;5031814;28;20216;-70
2021/05/13 05:13:46;;;;;;;18.95;15.05;;;;;;;;;;5028006;28;20197;-70
2021/05/13 05:16:11;;;;;;;15.25;12.35;;;;;;;;;;5027878;28;20179;-70
2021/05/13 05:18:36;;;;;;;15.50;11.52;;;;;;;;;;5020936;28;20193;-70
2021/05/13 05:21:02;;;;;;;17.05;11.23;;;;;;;;;;5032851;28;20216;-70
2021/05/13 05:23:29;;;;;;;18.90;13.88;;;;;;;;;;5030899;28;21356;-70
2021/05/13 05:25:56;;;;;;;20.73;15.23;;;;;;;;;;5024751;28;20774;-70
2021/05/13 05:28:22;;;;;;;18.83;15.15;;;;;;;;;;5031199;28;20193;-70
2021/05/13 05:30:47;;;;;;;33.35;16.98;;;;;;;;;;5021448;28;20196;-69
2021/05/13 05:33:13;;;;;;;19.35;16.13;;;;;;;;;;5030221;28;20268;-69
2021/05/13 05:35:39;;;;;;;24.08;17.05;;;;;;;;;;5021871;28;20605;-70
2021/05/13 05:38:06;;;;;;;24.85;17.58;;;;;;;;;;5027142;28;20272;-70
2021/05/13 05:40:31;;;;;;;20.70;16.75;;;;;;;;;;5024110;28;20505;-70
2021/05/13 05:42:57;;;;;;;21.90;16.58;;;;;;;;;;5029373;28;20257;-69
2021/05/13 05:45:23;;;;;;;22.83;17.35;;;;;;;;;;5024455;28;20674;-69
2021/05/13 05:47:51;;;;;;;21.35;16.08;;;;;;;;;;5036947;28;20189;-70
2021/05/13 05:50:17;;;;;;;24.98;16.77;;;;;;;;;;5020536;28;20209;-69
2021/05/13 05:52:43;;;;;;;24.75;16.35;;;;;;;;;;5037048;28;20191;-70
2021/05/13 05:55:09;;;;;;;21.85;16.55;;;;;;;;;;5030014;28;20407;-69
2021/05/13 05:57:35;;;;;;;20.85;16.63;;;;;;;;;;5028711;28;20224;-69
2021/05/13 06:00:02;;;;;;;21.02;16.48;;;;;;;;;;5031853;28;20263;-70
2021/05/13 06:02:27;;;;;;;25.92;16.83;;;;;;;;;;5029628;28;20323;-69
2021/05/13 06:04:53;;;;;;;23.15;14.85;;;;;;;;;;5030006;28;20661;-69
2021/05/13 06:07:19;;;;;;;27.70;16.90;;;;;;;;;;5022238;28;20185;-69
2021/05/13 06:09:45;;;;;;;31.15;16.42;;;;;;;;;;5032985;28;20301;-70
2021/05/13 06:12:12;;;;;;;26.63;15.05;;;;;;;;;;5028264;28;20295;-69
2021/05/13 06:14:37;;;;;;;21.58;14.30;;;;;;;;;;5032362;28;20251;-70
2021/05/13 06:17:03;;;;;;;23.48;15.50;;;;;;;;;;5026575;28;20184;-69
2021/05/13 06:19:28;;;;;;;21.20;14.70;;;;;;;;;;5028778;28;20236;-69
2021/05/13 06:21:53;;;;;;;21.67;14.63;;;;;;;;;;5020535;28;20585;-70
2021/05/13 06:24:19;;;;;;;19.02;14.40;;;;;;;;;;5027385;28;20565;-70
2021/05/13 06:26:54;;;;;;;22.88;15.40;;;;;;;;;;5030523;28;20837;-70
2021/05/13 06:29:20;;;;;;;23.05;14.63;;;;;;;;;;5024831;28;20233;-70
2021/05/13 06:31:45;;;;;;;21.52;14.93;;;;;;;;;;5034233;28;20181;-69
2021/05/13 06:34:10;;;;;;;20.50;15.50;;;;;;;;;;5026564;28;20190;-69
2021/05/13 06:36:38;;;;;;;22.10;15.55;;;;;;;;;;5030792;28;20576;-70
2021/05/13 06:39:04;;;;;;;24.48;15.95;;;;;;;;;;5017897;28;20220;-69
2021/05/13 06:41:30;;;;;;;26.10;15.60;;;;;;;;;;5029183;28;20222;-70
2021/05/13 06:43:56;;;;;;;22.15;15.95;;;;;;;;;;5027518;28;20601;-70
2021/05/13 06:46:22;;;;;;;23.08;15.35;;;;;;;;;;5031495;28;20173;-70
2021/05/13 06:48:48;;;;;;;24.67;15.13;;;;;;;;;;5028720;28;20266;-70
2021/05/13 06:51:13;;;;;;;23.23;15.38;;;;;;;;;;5034154;28;20178;-70
2021/05/13 06:53:39;;;;;;;24.15;14.23;;;;;;;;;;5026762;28;20193;-69
2021/05/13 06:56:04;;;;;;;19.15;13.75;;;;;;;;;;5031514;28;20586;-70
2021/05/13 06:58:30;;;;;;;18.38;12.27;;;;;;;;;;5031136;28;20244;-70
2021/05/13 07:00:55;;;;;;;21.17;13.88;;;;;;;;;;5021709;28;20186;-70
2021/05/13 07:03:20;;;;;;;23.17;13.07;;;;;;;;;;5022348;28;20244;-70
2021/05/13 07:05:46;;;;;;;21.98;15.07;;;;;;;;;;5023871;28;20190;-69
2021/05/13 07:08:11;;;;;;;22.27;15.02;;;;;;;;;;5027769;28;20280;-69
2021/05/13 07:10:37;;;;;;;21.42;12.75;;;;;;;;;;5026115;28;20676;-69
2021/05/13 07:13:03;;;;;;;16.70;12.55;;;;;;;;;;5029768;28;20193;-70
2021/05/13 07:15:28;;;;;;;17.75;11.20;;;;;;;;;;5021690;28;20622;-70
2021/05/13 07:17:54;;;;;;;17.98;11.35;;;;;;;;;;5017785;28;20264;-70
2021/05/13 07:20:21;;;;;;;15.88;10.43;;;;;;;;;;5026748;28;20212;-69
2021/05/13 07:22:46;;;;;;;17.73;11.07;;;;;;;;;;5036308;28;20196;-69
2021/05/13 07:25:12;;;;;;;16.45;11.13;;;;;;;;;;5026209;28;20693;-69
2021/05/13 07:27:37;;;;;;;21.13;11.98;;;;;;;;;;5034028;28;20183;-70
2021/05/13 07:30:03;;;;;;;20.50;12.57;;;;;;;;;;5033781;28;20637;-70
2021/05/13 07:32:29;;;;;;;17.90;11.82;;;;;;;;;;5030387;28;20185;-69
2021/05/13 07:34:54;;;;;;;16.60;10.63;;;;;;;;;;5033047;28;20273;-70
2021/05/13 07:37:19;;;;;;;17.48;10.68;;;;;;;;;;5029098;28;20193;-69
2021/05/13 07:39:45;;;;;;;16.00;10.35;;;;;;;;;;5040760;28;20174;-70
2021/05/13 07:42:10;;;;;;;17.77;10.27;;;;;;;;;;5030541;28;20189;-70
2021/05/13 07:44:35;;;;;;;14.90;8.90;;;;;;;;;;5034975;28;20260;-70
2021/05/13 07:47:02;;;;;;;20.35;8.80;;;;;;;;;;5032581;28;20652;-70
2021/05/13 07:49:27;;;;;;;15.57;7.85;;;;;;;;;;5033839;28;20296;-70
2021/05/13 07:51:53;;;;;;;15.63;7.72;;;;;;;;;;5032217;28;20629;-70
2021/05/13 07:54:19;;;;;;;14.45;6.95;;;;;;;;;;5035278;28;20205;-70
2021/05/13 07:56:46;;;;;;;11.80;5.82;;;;;;;;;;5025381;28;20185;-70
2021/05/13 07:59:12;;;;;;;13.40;5.15;;;;;;;;;;5032337;28;20551;-70
2021/05/13 08:01:38;;;;;;;15.23;5.45;;;;;;;;;;5036855;28;20279;-70
2021/05/13 08:04:03;;;;;;;16.52;5.82;;;;;;;;;;5027565;28;20185;-70
2021/05/13 08:06:28;;;;;;;12.40;6.25;;;;;;;;;;5034684;28;20213;-70
2021/05/13 08:08:54;;;;;;;14.65;7.20;;;;;;;;;;5026530;28;20296;-70
2021/05/13 08:11:19;;;;;;;14.45;6.22;;;;;;;;;;5031031;28;20657;-70
2021/05/13 08:13:44;;;;;;;16.30;6.43;;;;;;;;;;5023724;28;20201;-70
2021/05/13 08:16:10;;;;;;;14.30;6.03;;;;;;;;;;5033170;28;20189;-70
2021/05/13 08:18:35;;;;;;;12.82;5.95;;;;;;;;;;5023432;28;20288;-70
2021/05/13 08:21:02;;;;;;;13.05;5.43;;;;;;;;;;5034081;28;20189;-70
2021/05/13 08:23:27;;;;;;;8.60;5.18;;;;;;;;;;5027232;28;20198;-70
2021/05/13 08:25:52;;;;;;;14.90;6.18;;;;;;;;;;5026000;28;20675;-70
2021/05/13 08:28:18;;;;;;;13.23;5.40;;;;;;;;;;5032029;28;20181;-70
2021/05/13 08:30:43;;;;;;;13.88;5.57;;;;;;;;;;5039745;28;20202;-70
2021/05/13 08:33:08;;;;;;;13.32;6.45;;;;;;;;;;5031779;28;20221;-71
2021/05/13 08:35:34;;;;;;;13.00;5.82;;;;;;;;;;5030375;28;20193;-71
2021/05/13 08:38:00;;;;;;;13.35;7.40;;;;;;;;;;5033668;28;20255;-70
2021/05/13 08:40:25;;;;;;;12.07;6.80;;;;;;;;;;5027224;28;20178;-71
2021/05/13 08:42:50;;;;;;;11.75;6.88;;;;;;;;;;5036410;28;20611;-70
2021/05/13 08:45:17;;;;;;;14.23;9.38;;;;;;;;;;5030160;28;20186;-71
2021/05/13 08:47:46;;;;;;;17.55;7.40;;;;;;;;;;5033821;28;20185;-70
2021/05/13 08:50:17;;;;;;;14.85;6.60;;;;;;;;;;5026002;28;20205;-70
2021/05/13 08:52:43;;;;;;;12.80;7.13;;;;;;;;;;5034267;28;20202;-71
2021/05/13 08:55:09;;;;;;;10.07;7.00;;;;;;;;;;5028168;28;20583;-71
2021/05/13 08:57:34;;;;;;;13.10;6.78;;;;;;;;;;5034645;28;20490;-71
2021/05/13 09:00:00;;;;;;;13.82;7.45;;;;;;;;;;5025207;28;20316;-71
2021/05/13 09:02:29;;;;;;;13.65;8.38;;;;;;;;;;5033837;28;20242;-71
2021/05/13 09:04:56;;;;;;;15.95;9.43;;;;;;;;;;5030003;28;20242;-71
2021/05/13 09:07:30;;;;;;;17.35;9.52;;;;;;;;;;5024600;28;20212;-70
2021/05/13 09:09:57;;;;;;;17.13;8.88;;;;;;;;;;5032723;28;20575;-71
2021/05/13 09:12:25;;;;;;;15.38;9.13;;;;;;;;;;5028352;28;20213;-71
2021/05/13 09:15:03;;;;;;;10.65;6.38;;;;;;;;;;5038103;28;20182;-71
2021/05/13 09:17:30;;;;;;;12.13;6.10;;;;;;;;;;5025266;28;20280;-71
2021/05/13 09:19:56;;;;;;;14.15;7.18;;;;;;;;;;5036586;28;20226;-71
2021/05/13 09:22:24;;;;;;;14.68;6.88;;;;;;;;;;5028302;28;20190;-71
2021/05/13 09:25:07;;;;;;;14.48;8.48;;;;;;;;;;5034917;28;20212;-71
2021/05/13 09:27:34;;;;;;;19.95;9.32;;;;;;;;;;5026926;28;20194;-70
2021/05/13 09:30:18;;;;;;;17.48;10.10;;;;;;;;;;5037812;28;20196;-70
2021/05/13 09:32:49;;;;;;;18.77;11.07;;;;;;;;;;5022171;28;20634;-70
2021/05/13 09:35:17;;;;;;;15.60;11.18;;;;;;;;;;5029561;28;20672;-71
2021/05/13 09:37:53;;;;;;;15.32;10.55;;;;;;;;;;5026890;28;20192;-71
2021/05/13 09:40:22;;;;;;;16.83;10.60;;;;;;;;;;5032037;28;20603;-71
2021/05/13 09:43:07;;;;;;;19.70;11.93;;;;;;;;;;5028041;28;20197;-71
2021/05/13 09:45:58;;;;;;;15.40;10.65;;;;;;;;;;5032279;28;20284;-71
2021/05/13 09:48:32;;;;;;;16.17;9.82;;;;;;;;;;5024578;28;20186;-70
2021/05/13 09:51:18;;;;;;;15.35;10.35;;;;;;;;;;5031548;28;20216;-70
2021/05/13 09:53:46;;;;;;;15.40;9.48;;;;;;;;;;5025665;28;20204;-71
2021/05/13 09:56:24;;;;;;;10.38;7.30;;;;;;;;;;5031766;28;20194;-71
2021/05/13 09:58:50;;;;;;;17.35;10.85;;;;;;;;;;5030069;28;20342;-71
2021/05/13 10:01:16;;;;;;;17.00;12.10;;;;;;;;;;5028438;28;20198;-71
2021/05/13 10:03:43;;;;;;;20.02;11.82;;;;;;;;;;5030759;28;20188;-71
2021/05/13 10:06:10;;;;;;;16.85;11.60;;;;;;;;;;5029754;28;20570;-71
2021/05/13 10:08:36;;;;;;;10.98;7.80;;;;;;;;;;5029932;28;20281;-71
2021/05/13 10:11:02;;;;;;;17.08;7.60;;;;;;;;;;5029900;28;20697;-71
2021/05/13 10:13:28;;;;;;;15.63;6.65;;;;;;;;;;5033187;28;20189;-70
2021/05/13 10:15:54;;;;;;;15.95;6.95;;;;;;;;;;5027461;28;20194;-70
2021/05/13 10:18:38;;;;;;;11.65;8.27;;;;;;;;;;5034230;28;20247;-70
2021/05/13 10:21:12;;;;;;;14.93;8.57;;;;;;;;;;5028649;28;20196;-70
2021/05/13 10:23:40;;;;;;;14.15;8.40;;;;;;;;;;5035574;28;20188;-70
2021/05/13 10:26:07;;;;;;;18.02;9.82;;;;;;;;;;5024661;28;20518;-70
2021/05/13 10:28:33;;;;;;;17.58;10.75;;;;;;;;;;5036631;28;20189;-70
2021/05/13 10:31:05;;;;;;;16.77;10.18;;;;;;;;;;5024575;28;20213;-70
2021/05/13 10:33:44;;;;;;;18.27;11.18;;;;;;;;;;5033322;28;20192;-70
2021/05/13 10:36:14;;;;;;;15.63;11.18;;;;;;;;;;5022498;28;20189;-70
2021/05/13 10:38:52;;;;;;;16.17;10.68;;;;;;;;;;5031694;28;20197;-70
2021/05/13 10:41:30;;;;;;;14.63;9.52;;;;;;;;;;5025541;28;20200;-70
2021/05/13 10:43:56;;;;;;;13.48;9.63;;;;;;;;;;5035074;28;20301;-71
2021/05/13 10:46:28;;;;;;;15.00;9.82;;;;;;;;;;5026723;28;20273;-71
2021/05/13 10:49:17;;;;;;;16.92;9.50;;;;;;;;;;5031778;28;20221;-71
2021/05/13 10:51:43;;;;;;;12.55;8.40;;;;;;;;;;5028755;28;20193;-71
2021/05/13 10:54:09;;;;;;;11.30;8.77;;;;;;;;;;5034068;28;20604;-71
2021/05/13 10:56:37;;;;;;;13.50;8.38;;;;;;;;;;5024656;28;20191;-71
2021/05/13 10:59:07;;;;;;;12.20;7.53;;;;;;;;;;5034478;28;20239;-71
2021/05/13 11:01:53;;;;;;;13.20;7.93;;;;;;;;;;5031562;28;20230;-70
2021/05/13 11:04:22;;;;;;;18.35;8.55;;;;;;;;;;5038908;28;20543;-71
2021/05/13 11:06:56;;;;;;;15.43;8.05;;;;;;;;;;5033271;28;20198;-71
2021/05/13 11:12:13;;;;;;;14.70;8.20;;;;;;;;;;5023427;28;20197;-70
2021/05/13 11:15:12;;;;;;;14.45;8.07;;;;;;;;;;5036271;28;20196;-69
2021/05/13 11:20:20;;;;;;;12.68;7.90;;;;;;;;;;5041336;28;20273;-69
2021/05/13 11:23:09;;;;;;;14.05;7.30;;;;;;;;;;5031660;28;20631;-70
2021/05/13 11:25:35;;;;;;;14.50;7.95;;;;;;;;;;5033134;28;20178;-68
2021/05/13 11:28:15;;;;;;;15.70;7.95;;;;;;;;;;5031724;28;20189;-70
2021/05/13 11:30:40;;;;;;;17.00;8.18;;;;;;;;;;5033042;28;20358;-69
2021/05/13 11:33:08;;;;;;;13.30;7.35;;;;;;;;;;5023972;28;20217;-69
2021/05/13 11:35:34;;;;;;;10.27;6.78;;;;;;;;;;5042211;28;20219;-69
2021/05/13 11:38:13;;;;;;;14.75;7.25;;;;;;;;;;5038559;28;20186;-69
2021/05/13 11:40:39;;;;;;;13.48;7.05;;;;;;;;;;5040247;28;20189;-69
2021/05/13 11:43:22;;;;;;;14.55;6.82;;;;;;;;;;5036087;28;20233;-69
2021/05/13 11:45:49;;;;;;;16.23;6.93;;;;;;;;;;5032129;28;20289;-70
2021/05/13 11:48:27;;;;;;;14.93;7.43;;;;;;;;;;5037633;28;20198;-70
2021/05/13 11:50:55;;;;;;;12.25;6.95;;;;;;;;;;5025450;28;20237;-70
2021/05/13 11:53:21;;;;;;;14.10;7.28;;;;;;;;;;5036589;28;20201;-70
2021/05/13 11:55:47;;;;;;;12.27;6.53;;;;;;;;;;5031510;28;20556;-70
2021/05/13 11:58:15;;;;;;;11.45;6.75;;;;;;;;;;5038233;28;20191;-70
2021/05/13 12:00:41;;;;;;;14.95;6.95;;;;;;;;;;5031303;28;20594;-70
2021/05/13 12:03:15;;;;;;;10.73;6.07;;;;;;;;;;5033243;28;20198;-71
2021/05/13 12:05:53;;;;;;;12.93;6.28;;;;;;;;;;5028930;28;20216;-69
2021/05/13 12:08:23;;;;;;;14.30;6.45;;;;;;;;;;5035861;28;20189;-69
2021/05/13 12:10:50;;;;;;;13.25;6.28;;;;;;;;;;5026728;28;20197;-70
2021/05/13 12:13:17;;;;;;;10.98;5.78;;;;;;;;;;5037061;28;20620;-70
2021/05/13 12:15:42;;;;;;;12.32;6.20;;;;;;;;;;5034993;28;20271;-70
2021/05/13 12:18:08;;;;;;;11.40;5.95;;;;;;;;;;5033926;28;20225;-70
2021/05/13 12:20:38;;;;;;;8.55;6.22;;;;;;;;;;5024468;28;23876;-70
2021/05/13 12:23:05;;;;;;;11.90;6.68;;;;;;;;;;5035709;28;20233;-71
2021/05/13 12:25:31;;;;;;;11.73;6.07;;;;;;;;;;4336417;28;10000722;-70
2021/05/13 12:27:57;;;;;;;10.65;6.13;;;;;;;;;;5029168;28;20213;-70
2021/05/13 12:30:22;;;;;;;10.55;5.78;;;;;;;;;;5032012;28;20221;-69
2021/05/13 12:32:48;;;;;;;7.55;5.00;;;;;;;;;;5024094;28;20246;-69
2021/05/13 12:35:21;;;;;;;11.35;5.93;;;;;;;;;;5028719;28;20186;-68
2021/05/13 12:37:46;;;;;;;8.27;4.88;;;;;;;;;;5024223;28;20198;-70
2021/05/13 12:40:14;;;;;;;7.90;4.68;;;;;;;;;;5034337;28;20191;-69
2021/05/13 12:42:40;;;;;;;11.57;4.80;;;;;;;;;;5024269;28;20313;-69
2021/05/13 12:45:16;;;;;;;8.90;4.38;;;;;;;;;;5024029;28;20328;-69
2021/05/13 12:47:42;;;;;;;9.85;5.07;;;;;;;;;;5022464;28;20202;-69
2021/05/13 12:50:08;;;;;;;10.68;4.47;;;;;;;;;;5024774;28;20206;-70
2021/05/13 12:52:33;;;;;;;7.35;4.68;;;;;;;;;;5020793;28;20305;-69
2021/05/13 12:55:17;;;;;;;8.23;4.65;;;;;;;;;;5033766;28;20277;-69
2021/05/13 12:57:46;;;;;;;14.18;5.07;;;;;;;;;;5024172;28;20286;-70
2021/05/13 13:00:13;;;;;;;10.95;4.30;;;;;;;;;;5030190;28;20212;-70
2021/05/13 13:02:39;;;;;;;14.88;5.05;;;;;;;;;;5020776;28;20217;-70
2021/05/13 13:05:07;;;;;;;9.45;3.97;;;;;;;;;;5029195;28;20258;-70
2021/05/13 13:07:43;;;;;;;7.68;4.43;;;;;;;;;;5027847;28;20193;-70
2021/05/13 13:10:27;;;;;;;13.68;4.47;;;;;;;;;;5028581;28;20221;-70
2021/05/13 13:13:18;;;;;;;8.88;4.07;;;;;;;;;;5024604;28;20181;-70
2021/05/13 13:15:55;;;;;;;8.13;3.88;;;;;;;;;;5031078;28;20608;-70
2021/05/13 13:18:24;;;;;;;9.07;4.13;;;;;;;;;;5018942;28;20224;-70
2021/05/13 13:20:50;;;;;;;7.93;3.47;;;;;;;;;;5029022;28;20216;-71
2021/05/13 13:23:28;;;;;;;8.63;4.18;;;;;;;;;;5029837;28;20185;-70
2021/05/13 13:25:59;;;;;;;9.63;3.95;;;;;;;;;;5035734;28;20197;-70
2021/05/13 13:28:25;;;;;;;8.15;4.18;;;;;;;;;;5036720;28;20574;-70
2021/05/13 13:30:54;;;;;;;7.35;3.92;;;;;;;;;;5030966;28;20232;-70
2021/05/13 13:33:24;;;;;;;8.95;4.00;;;;;;;;;;5034567;28;20189;-70
2021/05/13 13:35:52;;;;;;;6.20;3.55;;;;;;;;;;5024832;28;20288;-71
2021/05/13 13:38:18;;;;;;;8.77;4.00;;;;;;;;;;5031549;28;20193;-69
2021/05/13 13:40:45;;;;;;;9.02;4.22;;;;;;;;;;5027342;28;20218;-69
2021/05/13 13:43:13;;;;;;;8.13;3.78;;;;;;;;;;5031380;28;20218;-68
2021/05/13 13:45:39;;;;;;;8.35;4.03;;;;;;;;;;5025828;28;20559;-70
2021/05/13 13:48:08;;;;;;;11.38;4.07;;;;;;;;;;5034465;28;20189;-69
2021/05/13 13:50:55;;;;;;;8.98;4.00;;;;;;;;;;5020348;28;20229;-70
2021/05/13 13:53:23;;;;;;;10.00;3.65;;;;;;;;;;5032487;28;20268;-70
2021/05/13 13:55:50;;;;;;;7.82;3.60;;;;;;;;;;5021670;28;21005;-70
2021/05/13 13:58:15;;;;;;;6.32;3.40;;;;;;;;;;5027953;28;20487;-70
2021/05/13 14:00:41;;;;;;;6.43;3.60;;;;;;;;;;5020947;28;20193;-70
2021/05/13 14:03:06;;;;;;;7.38;4.03;;;;;;;;;;5028361;28;20221;-70
2021/05/13 14:05:32;;;;;;;7.90;3.65;;;;;;;;;;5034244;28;20181;-70
2021/05/13 14:07:57;;;;;;;8.35;3.92;;;;;;;;;;5030220;28;20664;-70
2021/05/13 14:10:26;;;;;;;148.27;14.43;;;;;;;;;;5035364;28;20210;-70
2021/05/13 14:12:52;;;;;;;11.02;4.07;;;;;;;;;;5027009;28;20194;-70
2021/05/13 14:15:17;;;;;;;8.90;3.95;;;;;;;;;;5030998;28;20185;-70
2021/05/13 14:17:42;;;;;;;8.13;4.05;;;;;;;;;;5020649;28;20212;-70
2021/05/13 14:20:11;;;;;;;8.70;4.03;;;;;;;;;;5030318;28;20178;-70
2021/05/13 14:22:36;;;;;;;9.23;3.75;;;;;;;;;;5024822;28;20189;-70
2021/05/13 14:25:02;;;;;;;10.15;4.22;;;;;;;;;;5033045;28;20295;-70
2021/05/13 14:27:28;;;;;;;10.10;4.35;;;;;;;;;;5025459;28;20241;-70
2021/05/13 14:29:53;;;;;;;9.18;3.88;;;;;;;;;;5029581;28;20292;-70
2021/05/13 14:32:19;;;;;;;10.57;3.75;;;;;;;;;;5028345;28;20671;-70
2021/05/13 14:34:44;;;;;;;7.65;3.70;;;;;;;;;;5034085;28;20188;-70
2021/05/13 14:37:09;;;;;;;5.78;3.72;;;;;;;;;;5033228;28;20198;-70
2021/05/13 14:39:35;;;;;;;9.52;3.67;;;;;;;;;;5032044;28;20174;-70
2021/05/13 14:42:02;;;;;;;10.40;3.65;;;;;;;;;;5038401;28;20197;-70